sensor_id;sensor_type;location;lat;lon;timestamp;P1;durP1;ratioP1;P2;durP2;ratioP2
78120;SDS011;67585;44.802;10.332;2024-02-26T00:01:41;1.00;;;0.20;;
78120;SDS011;67585;44.802;10.332;2024-02-26T00:04:08;1.52;;;0.65;;
78120;SDS011;67585;44.802;10.332;2024-02-26T00:06:34;0.47;;;0.17;;
78120;SDS011;67585;44.802;10.332;2024-02-26T00:09:00;0.90;;;0.00;;
78120;SDS011;67585;44.802;10.332;2024-02-26T00:11:26;1.27;;;0.10;;
78120;SDS011;67585;44.802;10.332;2024-02-26T00:13:51;0.55;;;0.10;;
78120;SDS011;67585;44.802;10.332;2024-02-26T00:16:16;3.03;;;0.10;;
78120;SDS011;67585;44.802;10.332;2024-02-26T00:18:42;1.55;;;0.30;;
78120;SDS011;67585;44.802;10.332;2024-02-26T00:21:07;0.65;;;0.10;;
78120;SDS011;67585;44.802;10.332;2024-02-26T00:23:33;1.20;;;0.10;;
78120;SDS011;67585;44.802;10.332;2024-02-26T00:25:58;1.23;;;0.30;;
78120;SDS011;67585;44.802;10.332;2024-02-26T00:28:23;1.10;;;0.10;;
78120;SDS011;67585;44.802;10.332;2024-02-26T00:30:50;2.15;;;0.47;;
78120;SDS011;67585;44.802;10.332;2024-02-26T00:33:16;2.05;;;0.00;;
78120;SDS011;67585;44.802;10.332;2024-02-26T00:35:42;1.48;;;0.22;;
78120;SDS011;67585;44.802;10.332;2024-02-26T00:38:07;1.38;;;0.40;;
78120;SDS011;67585;44.802;10.332;2024-02-26T00:40:33;1.45;;;0.13;;
78120;SDS011;67585;44.802;10.332;2024-02-26T00:42:59;0.80;;;0.30;;
78120;SDS011;67585;44.802;10.332;2024-02-26T00:45:24;1.80;;;0.25;;
78120;SDS011;67585;44.802;10.332;2024-02-26T00:47:50;0.85;;;0.17;;
78120;SDS011;67585;44.802;10.332;2024-02-26T00:50:15;0.65;;;0.45;;
78120;SDS011;67585;44.802;10.332;2024-02-26T00:52:41;2.17;;;0.10;;
78120;SDS011;67585;44.802;10.332;2024-02-26T00:55:07;1.98;;;0.17;;
78120;SDS011;67585;44.802;10.332;2024-02-26T00:57:32;2.10;;;0.40;;
78120;SDS011;67585;44.802;10.332;2024-02-26T00:59:58;2.35;;;0.40;;
78120;SDS011;67585;44.802;10.332;2024-02-26T01:02:24;1.25;;;0.17;;
78120;SDS011;67585;44.802;10.332;2024-02-26T01:04:49;1.63;;;0.38;;
78120;SDS011;67585;44.802;10.332;2024-02-26T01:07:16;1.55;;;0.55;;
78120;SDS011;67585;44.802;10.332;2024-02-26T01:09:42;3.15;;;0.20;;
78120;SDS011;67585;44.802;10.332;2024-02-26T01:12:07;1.63;;;0.35;;
78120;SDS011;67585;44.802;10.332;2024-02-26T01:14:33;4.82;;;0.32;;
78120;SDS011;67585;44.802;10.332;2024-02-26T01:16:58;1.45;;;0.38;;
78120;SDS011;67585;44.802;10.332;2024-02-26T01:19:24;4.15;;;0.77;;
78120;SDS011;67585;44.802;10.332;2024-02-26T01:21:49;3.13;;;0.30;;
78120;SDS011;67585;44.802;10.332;2024-02-26T01:24:15;2.45;;;0.30;;
78120;SDS011;67585;44.802;10.332;2024-02-26T01:26:40;2.00;;;0.40;;
78120;SDS011;67585;44.802;10.332;2024-02-26T01:29:06;6.32;;;0.22;;
78120;SDS011;67585;44.802;10.332;2024-02-26T01:31:31;1.75;;;0.55;;
78120;SDS011;67585;44.802;10.332;2024-02-26T01:33:56;2.63;;;0.32;;
78120;SDS011;67585;44.802;10.332;2024-02-26T01:36:22;2.03;;;0.68;;
78120;SDS011;67585;44.802;10.332;2024-02-26T01:38:47;1.80;;;0.50;;
78120;SDS011;67585;44.802;10.332;2024-02-26T01:41:13;1.40;;;0.17;;
78120;SDS011;67585;44.802;10.332;2024-02-26T01:43:39;2.50;;;0.43;;
78120;SDS011;67585;44.802;10.332;2024-02-26T01:46:05;2.65;;;0.47;;
78120;SDS011;67585;44.802;10.332;2024-02-26T01:48:32;0.98;;;0.15;;
78120;SDS011;67585;44.802;10.332;2024-02-26T01:50:58;2.22;;;0.50;;
78120;SDS011;67585;44.802;10.332;2024-02-26T01:53:23;2.00;;;0.28;;
78120;SDS011;67585;44.802;10.332;2024-02-26T01:55:49;2.15;;;0.30;;
78120;SDS011;67585;44.802;10.332;2024-02-26T01:58:15;1.77;;;0.20;;
78120;SDS011;67585;44.802;10.332;2024-02-26T02:00:41;3.13;;;0.38;;
78120;SDS011;67585;44.802;10.332;2024-02-26T02:03:07;2.53;;;0.93;;
78120;SDS011;67585;44.802;10.332;2024-02-26T02:05:33;3.78;;;0.73;;
78120;SDS011;67585;44.802;10.332;2024-02-26T02:07:59;2.25;;;0.10;;
78120;SDS011;67585;44.802;10.332;2024-02-26T02:10:26;2.40;;;0.88;;
78120;SDS011;67585;44.802;10.332;2024-02-26T02:12:51;2.15;;;0.77;;
78120;SDS011;67585;44.802;10.332;2024-02-26T02:15:17;1.80;;;0.22;;
78120;SDS011;67585;44.802;10.332;2024-02-26T02:17:43;4.10;;;0.38;;
78120;SDS011;67585;44.802;10.332;2024-02-26T02:20:17;2.47;;;0.60;;
78120;SDS011;67585;44.802;10.332;2024-02-26T02:22:44;1.88;;;0.32;;
78120;SDS011;67585;44.802;10.332;2024-02-26T02:25:10;2.00;;;1.10;;
78120;SDS011;67585;44.802;10.332;2024-02-26T02:27:35;3.30;;;0.68;;
78120;SDS011;67585;44.802;10.332;2024-02-26T02:30:01;2.78;;;0.55;;
78120;SDS011;67585;44.802;10.332;2024-02-26T02:32:27;2.97;;;0.38;;
78120;SDS011;67585;44.802;10.332;2024-02-26T02:34:54;2.67;;;0.40;;
78120;SDS011;67585;44.802;10.332;2024-02-26T02:37:20;3.92;;;0.60;;
78120;SDS011;67585;44.802;10.332;2024-02-26T02:39:46;1.80;;;0.40;;
78120;SDS011;67585;44.802;10.332;2024-02-26T02:42:11;2.83;;;0.25;;
78120;SDS011;67585;44.802;10.332;2024-02-26T02:44:37;3.80;;;0.40;;
78120;SDS011;67585;44.802;10.332;2024-02-26T02:47:02;1.58;;;0.52;;
78120;SDS011;67585;44.802;10.332;2024-02-26T02:49:28;2.92;;;0.20;;
78120;SDS011;67585;44.802;10.332;2024-02-26T02:51:53;1.00;;;0.13;;
78120;SDS011;67585;44.802;10.332;2024-02-26T02:54:19;0.90;;;0.20;;
78120;SDS011;67585;44.802;10.332;2024-02-26T02:56:45;1.48;;;0.30;;
78120;SDS011;67585;44.802;10.332;2024-02-26T02:59:10;2.75;;;1.23;;
78120;SDS011;67585;44.802;10.332;2024-02-26T03:01:36;2.25;;;0.73;;
78120;SDS011;67585;44.802;10.332;2024-02-26T03:04:01;1.48;;;0.20;;
78120;SDS011;67585;44.802;10.332;2024-02-26T03:06:26;2.40;;;0.10;;
78120;SDS011;67585;44.802;10.332;2024-02-26T03:08:53;5.35;;;0.98;;
78120;SDS011;67585;44.802;10.332;2024-02-26T03:11:19;2.55;;;0.68;;
78120;SDS011;67585;44.802;10.332;2024-02-26T03:13:45;2.25;;;0.90;;
78120;SDS011;67585;44.802;10.332;2024-02-26T03:16:11;4.22;;;0.40;;
78120;SDS011;67585;44.802;10.332;2024-02-26T03:18:38;5.38;;;0.20;;
78120;SDS011;67585;44.802;10.332;2024-02-26T03:21:05;3.53;;;1.10;;
78120;SDS011;67585;44.802;10.332;2024-02-26T03:23:30;5.20;;;0.52;;
78120;SDS011;67585;44.802;10.332;2024-02-26T03:25:57;0.80;;;0.10;;
78120;SDS011;67585;44.802;10.332;2024-02-26T03:28:23;6.85;;;0.40;;
78120;SDS011;67585;44.802;10.332;2024-02-26T03:30:48;3.97;;;0.60;;
78120;SDS011;67585;44.802;10.332;2024-02-26T03:33:14;4.00;;;0.50;;
78120;SDS011;67585;44.802;10.332;2024-02-26T03:35:39;4.82;;;1.30;;
78120;SDS011;67585;44.802;10.332;2024-02-26T03:38:05;4.72;;;1.33;;
78120;SDS011;67585;44.802;10.332;2024-02-26T03:40:30;4.70;;;1.45;;
78120;SDS011;67585;44.802;10.332;2024-02-26T03:42:55;9.18;;;2.10;;
78120;SDS011;67585;44.802;10.332;2024-02-26T03:47:48;8.50;;;3.20;;
78120;SDS011;67585;44.802;10.332;2024-02-26T03:50:13;8.25;;;2.15;;
78120;SDS011;67585;44.802;10.332;2024-02-26T03:52:39;6.75;;;3.20;;
78120;SDS011;67585;44.802;10.332;2024-02-26T03:55:04;8.73;;;3.10;;
78120;SDS011;67585;44.802;10.332;2024-02-26T03:57:30;6.95;;;2.78;;
78120;SDS011;67585;44.802;10.332;2024-02-26T03:59:55;9.50;;;3.95;;
78120;SDS011;67585;44.802;10.332;2024-02-26T04:02:21;6.70;;;4.30;;
78120;SDS011;67585;44.802;10.332;2024-02-26T04:04:48;12.77;;;4.55;;
78120;SDS011;67585;44.802;10.332;2024-02-26T04:07:14;10.57;;;3.58;;
78120;SDS011;67585;44.802;10.332;2024-02-26T04:09:39;10.20;;;4.82;;
78120;SDS011;67585;44.802;10.332;2024-02-26T04:12:05;10.35;;;4.32;;
78120;SDS011;67585;44.802;10.332;2024-02-26T04:14:30;11.57;;;4.03;;
78120;SDS011;67585;44.802;10.332;2024-02-26T04:16:56;10.93;;;3.85;;
78120;SDS011;67585;44.802;10.332;2024-02-26T04:19:21;9.57;;;3.58;;
78120;SDS011;67585;44.802;10.332;2024-02-26T04:21:47;8.85;;;4.10;;
78120;SDS011;67585;44.802;10.332;2024-02-26T04:24:12;10.38;;;3.58;;
78120;SDS011;67585;44.802;10.332;2024-02-26T04:26:37;9.50;;;5.03;;
78120;SDS011;67585;44.802;10.332;2024-02-26T04:29:03;11.77;;;4.72;;
78120;SDS011;67585;44.802;10.332;2024-02-26T04:31:28;8.50;;;4.20;;
78120;SDS011;67585;44.802;10.332;2024-02-26T04:33:54;8.73;;;3.85;;
78120;SDS011;67585;44.802;10.332;2024-02-26T04:36:19;11.32;;;3.70;;
78120;SDS011;67585;44.802;10.332;2024-02-26T04:38:45;10.02;;;3.72;;
78120;SDS011;67585;44.802;10.332;2024-02-26T04:41:10;8.90;;;3.17;;
78120;SDS011;67585;44.802;10.332;2024-02-26T04:43:37;7.57;;;1.88;;
78120;SDS011;67585;44.802;10.332;2024-02-26T04:46:09;10.00;;;3.63;;
78120;SDS011;67585;44.802;10.332;2024-02-26T04:48:35;9.57;;;2.88;;
78120;SDS011;67585;44.802;10.332;2024-02-26T04:51:01;6.90;;;2.25;;
78120;SDS011;67585;44.802;10.332;2024-02-26T04:53:27;7.88;;;3.35;;
78120;SDS011;67585;44.802;10.332;2024-02-26T04:55:52;11.32;;;3.65;;
78120;SDS011;67585;44.802;10.332;2024-02-26T04:58:18;7.70;;;3.15;;
78120;SDS011;67585;44.802;10.332;2024-02-26T05:00:43;8.75;;;3.72;;
78120;SDS011;67585;44.802;10.332;2024-02-26T05:03:09;9.38;;;4.75;;
78120;SDS011;67585;44.802;10.332;2024-02-26T05:05:38;10.77;;;4.47;;
78120;SDS011;67585;44.802;10.332;2024-02-26T05:08:04;10.18;;;3.83;;
78120;SDS011;67585;44.802;10.332;2024-02-26T05:10:30;13.50;;;5.07;;
78120;SDS011;67585;44.802;10.332;2024-02-26T05:12:55;11.77;;;3.40;;
78120;SDS011;67585;44.802;10.332;2024-02-26T05:15:21;9.82;;;4.00;;
78120;SDS011;67585;44.802;10.332;2024-02-26T05:17:46;7.85;;;4.22;;
78120;SDS011;67585;44.802;10.332;2024-02-26T05:20:12;10.50;;;5.35;;
78120;SDS011;67585;44.802;10.332;2024-02-26T05:22:37;11.27;;;5.28;;
78120;SDS011;67585;44.802;10.332;2024-02-26T05:25:03;13.30;;;5.45;;
78120;SDS011;67585;44.802;10.332;2024-02-26T05:27:29;10.10;;;3.78;;
78120;SDS011;67585;44.802;10.332;2024-02-26T05:29:54;16.75;;;5.65;;
78120;SDS011;67585;44.802;10.332;2024-02-26T05:32:19;12.75;;;6.68;;
78120;SDS011;67585;44.802;10.332;2024-02-26T05:34:45;10.90;;;5.80;;
78120;SDS011;67585;44.802;10.332;2024-02-26T05:37:10;13.95;;;6.68;;
78120;SDS011;67585;44.802;10.332;2024-02-26T05:39:36;56.40;;;14.82;;
78120;SDS011;67585;44.802;10.332;2024-02-26T05:42:02;30.27;;;10.45;;
78120;SDS011;67585;44.802;10.332;2024-02-26T05:44:28;18.08;;;5.93;;
78120;SDS011;67585;44.802;10.332;2024-02-26T05:46:53;13.30;;;5.97;;
78120;SDS011;67585;44.802;10.332;2024-02-26T05:49:19;17.70;;;7.07;;
78120;SDS011;67585;44.802;10.332;2024-02-26T05:51:44;14.63;;;7.10;;
78120;SDS011;67585;44.802;10.332;2024-02-26T05:54:09;20.30;;;7.43;;
78120;SDS011;67585;44.802;10.332;2024-02-26T05:56:35;18.38;;;7.20;;
78120;SDS011;67585;44.802;10.332;2024-02-26T05:59:01;12.45;;;5.55;;
78120;SDS011;67585;44.802;10.332;2024-02-26T06:01:26;15.02;;;6.40;;
78120;SDS011;67585;44.802;10.332;2024-02-26T06:03:52;12.57;;;6.15;;
78120;SDS011;67585;44.802;10.332;2024-02-26T06:06:17;14.23;;;6.72;;
78120;SDS011;67585;44.802;10.332;2024-02-26T06:08:43;13.68;;;6.97;;
78120;SDS011;67585;44.802;10.332;2024-02-26T06:11:08;14.55;;;8.15;;
78120;SDS011;67585;44.802;10.332;2024-02-26T06:13:34;15.43;;;7.40;;
78120;SDS011;67585;44.802;10.332;2024-02-26T06:16:00;16.45;;;7.95;;
78120;SDS011;67585;44.802;10.332;2024-02-26T06:18:26;13.70;;;6.55;;
78120;SDS011;67585;44.802;10.332;2024-02-26T06:20:51;15.23;;;7.43;;
78120;SDS011;67585;44.802;10.332;2024-02-26T06:23:17;14.80;;;7.38;;
78120;SDS011;67585;44.802;10.332;2024-02-26T06:25:42;12.65;;;7.20;;
78120;SDS011;67585;44.802;10.332;2024-02-26T06:28:08;12.55;;;6.38;;
78120;SDS011;67585;44.802;10.332;2024-02-26T06:30:33;13.27;;;6.90;;
78120;SDS011;67585;44.802;10.332;2024-02-26T06:32:59;14.93;;;6.15;;
78120;SDS011;67585;44.802;10.332;2024-02-26T06:35:25;14.52;;;6.22;;
78120;SDS011;67585;44.802;10.332;2024-02-26T06:37:50;13.48;;;6.47;;
78120;SDS011;67585;44.802;10.332;2024-02-26T06:40:18;16.48;;;7.88;;
78120;SDS011;67585;44.802;10.332;2024-02-26T06:42:44;18.58;;;8.43;;
78120;SDS011;67585;44.802;10.332;2024-02-26T06:45:09;17.52;;;7.03;;
78120;SDS011;67585;44.802;10.332;2024-02-26T06:47:35;16.42;;;7.95;;
78120;SDS011;67585;44.802;10.332;2024-02-26T06:50:00;15.30;;;6.95;;
78120;SDS011;67585;44.802;10.332;2024-02-26T06:52:26;14.23;;;7.47;;
78120;SDS011;67585;44.802;10.332;2024-02-26T06:54:51;14.98;;;7.68;;
78120;SDS011;67585;44.802;10.332;2024-02-26T06:57:19;14.90;;;8.30;;
78120;SDS011;67585;44.802;10.332;2024-02-26T06:59:45;14.50;;;8.00;;
78120;SDS011;67585;44.802;10.332;2024-02-26T07:02:12;16.98;;;8.70;;
78120;SDS011;67585;44.802;10.332;2024-02-26T07:04:38;17.13;;;6.82;;
78120;SDS011;67585;44.802;10.332;2024-02-26T07:07:03;17.35;;;9.20;;
78120;SDS011;67585;44.802;10.332;2024-02-26T07:09:29;19.13;;;9.63;;
78120;SDS011;67585;44.802;10.332;2024-02-26T07:11:54;17.33;;;9.13;;
78120;SDS011;67585;44.802;10.332;2024-02-26T07:14:20;16.60;;;9.93;;
78120;SDS011;67585;44.802;10.332;2024-02-26T07:16:45;17.85;;;9.77;;
78120;SDS011;67585;44.802;10.332;2024-02-26T07:19:11;19.10;;;9.00;;
78120;SDS011;67585;44.802;10.332;2024-02-26T07:21:36;14.45;;;7.43;;
78120;SDS011;67585;44.802;10.332;2024-02-26T07:24:02;17.10;;;9.07;;
78120;SDS011;67585;44.802;10.332;2024-02-26T07:26:27;17.58;;;8.85;;
78120;SDS011;67585;44.802;10.332;2024-02-26T07:28:55;19.23;;;10.52;;
78120;SDS011;67585;44.802;10.332;2024-02-26T07:31:20;17.67;;;9.25;;
78120;SDS011;67585;44.802;10.332;2024-02-26T07:33:46;20.85;;;9.23;;
78120;SDS011;67585;44.802;10.332;2024-02-26T07:36:11;23.08;;;9.15;;
78120;SDS011;67585;44.802;10.332;2024-02-26T07:38:37;28.30;;;10.18;;
78120;SDS011;67585;44.802;10.332;2024-02-26T07:41:02;20.23;;;8.10;;
78120;SDS011;67585;44.802;10.332;2024-02-26T07:43:28;23.17;;;10.23;;
78120;SDS011;67585;44.802;10.332;2024-02-26T07:45:53;19.67;;;8.48;;
78120;SDS011;67585;44.802;10.332;2024-02-26T07:48:19;17.00;;;8.98;;
78120;SDS011;67585;44.802;10.332;2024-02-26T07:50:44;16.98;;;8.32;;
78120;SDS011;67585;44.802;10.332;2024-02-26T07:53:10;18.42;;;9.65;;
78120;SDS011;67585;44.802;10.332;2024-02-26T07:55:35;17.50;;;9.32;;
78120;SDS011;67585;44.802;10.332;2024-02-26T07:58:00;18.63;;;9.23;;
78120;SDS011;67585;44.802;10.332;2024-02-26T08:00:26;14.98;;;7.63;;
78120;SDS011;67585;44.802;10.332;2024-02-26T08:02:51;18.67;;;8.20;;
78120;SDS011;67585;44.802;10.332;2024-02-26T08:05:17;17.10;;;8.68;;
78120;SDS011;67585;44.802;10.332;2024-02-26T08:07:42;19.50;;;9.23;;
78120;SDS011;67585;44.802;10.332;2024-02-26T08:10:07;15.93;;;7.53;;
78120;SDS011;67585;44.802;10.332;2024-02-26T08:12:33;13.85;;;7.18;;
78120;SDS011;67585;44.802;10.332;2024-02-26T08:14:59;18.25;;;7.35;;
78120;SDS011;67585;44.802;10.332;2024-02-26T08:17:25;17.13;;;8.13;;
78120;SDS011;67585;44.802;10.332;2024-02-26T08:19:52;15.75;;;7.32;;
78120;SDS011;67585;44.802;10.332;2024-02-26T08:22:17;12.93;;;6.60;;
78120;SDS011;67585;44.802;10.332;2024-02-26T08:24:43;16.25;;;6.63;;
78120;SDS011;67585;44.802;10.332;2024-02-26T08:27:08;16.20;;;6.32;;
78120;SDS011;67585;44.802;10.332;2024-02-26T08:29:34;11.77;;;4.90;;
78120;SDS011;67585;44.802;10.332;2024-02-26T08:31:59;13.50;;;4.57;;
78120;SDS011;67585;44.802;10.332;2024-02-26T08:34:25;11.52;;;5.85;;
78120;SDS011;67585;44.802;10.332;2024-02-26T08:36:50;9.43;;;4.88;;
78120;SDS011;67585;44.802;10.332;2024-02-26T08:39:16;11.65;;;5.18;;
78120;SDS011;67585;44.802;10.332;2024-02-26T08:41:43;8.13;;;3.38;;
78120;SDS011;67585;44.802;10.332;2024-02-26T08:44:08;8.57;;;4.57;;
78120;SDS011;67585;44.802;10.332;2024-02-26T08:46:34;10.63;;;3.67;;
78120;SDS011;67585;44.802;10.332;2024-02-26T08:48:59;10.25;;;6.22;;
78120;SDS011;67585;44.802;10.332;2024-02-26T08:51:25;9.27;;;4.95;;
78120;SDS011;67585;44.802;10.332;2024-02-26T08:53:50;9.00;;;5.20;;
78120;SDS011;67585;44.802;10.332;2024-02-26T08:56:16;7.25;;;3.28;;
78120;SDS011;67585;44.802;10.332;2024-02-26T08:58:45;9.98;;;4.75;;
78120;SDS011;67585;44.802;10.332;2024-02-26T09:01:13;13.15;;;3.90;;
78120;SDS011;67585;44.802;10.332;2024-02-26T09:03:38;13.05;;;5.50;;
78120;SDS011;67585;44.802;10.332;2024-02-26T09:06:05;9.20;;;4.60;;
78120;SDS011;67585;44.802;10.332;2024-02-26T09:08:31;8.77;;;4.20;;
78120;SDS011;67585;44.802;10.332;2024-02-26T09:10:57;12.85;;;4.07;;
78120;SDS011;67585;44.802;10.332;2024-02-26T09:13:22;8.18;;;4.70;;
78120;SDS011;67585;44.802;10.332;2024-02-26T09:15:48;10.05;;;4.35;;
78120;SDS011;67585;44.802;10.332;2024-02-26T09:18:14;9.73;;;5.85;;
78120;SDS011;67585;44.802;10.332;2024-02-26T09:20:40;9.23;;;3.90;;
78120;SDS011;67585;44.802;10.332;2024-02-26T09:23:05;11.13;;;4.13;;
78120;SDS011;67585;44.802;10.332;2024-02-26T09:25:31;10.98;;;5.00;;
78120;SDS011;67585;44.802;10.332;2024-02-26T09:27:58;11.45;;;4.55;;
78120;SDS011;67585;44.802;10.332;2024-02-26T09:30:24;12.40;;;5.57;;
78120;SDS011;67585;44.802;10.332;2024-02-26T09:32:49;12.18;;;5.97;;
78120;SDS011;67585;44.802;10.332;2024-02-26T09:35:18;10.82;;;5.05;;
78120;SDS011;67585;44.802;10.332;2024-02-26T09:37:43;11.85;;;5.28;;
78120;SDS011;67585;44.802;10.332;2024-02-26T09:40:09;9.52;;;4.95;;
78120;SDS011;67585;44.802;10.332;2024-02-26T09:42:43;12.27;;;5.65;;
78120;SDS011;67585;44.802;10.332;2024-02-26T09:45:11;9.07;;;4.13;;
78120;SDS011;67585;44.802;10.332;2024-02-26T09:47:42;10.05;;;4.80;;
78120;SDS011;67585;44.802;10.332;2024-02-26T09:50:09;13.27;;;3.63;;
78120;SDS011;67585;44.802;10.332;2024-02-26T09:52:37;12.60;;;3.85;;
78120;SDS011;67585;44.802;10.332;2024-02-26T09:55:04;8.77;;;4.07;;
78120;SDS011;67585;44.802;10.332;2024-02-26T09:57:30;10.85;;;4.28;;
78120;SDS011;67585;44.802;10.332;2024-02-26T09:59:58;8.35;;;5.75;;
78120;SDS011;67585;44.802;10.332;2024-02-26T10:04:56;10.63;;;5.70;;
78120;SDS011;67585;44.802;10.332;2024-02-26T10:07:26;11.02;;;4.00;;
78120;SDS011;67585;44.802;10.332;2024-02-26T10:09:54;11.98;;;5.22;;
78120;SDS011;67585;44.802;10.332;2024-02-26T10:12:20;8.13;;;3.67;;
78120;SDS011;67585;44.802;10.332;2024-02-26T10:14:46;9.48;;;4.97;;
78120;SDS011;67585;44.802;10.332;2024-02-26T10:17:12;9.05;;;4.40;;
78120;SDS011;67585;44.802;10.332;2024-02-26T10:19:37;12.18;;;5.22;;
78120;SDS011;67585;44.802;10.332;2024-02-26T10:22:03;11.32;;;4.25;;
78120;SDS011;67585;44.802;10.332;2024-02-26T10:24:29;14.50;;;5.05;;
78120;SDS011;67585;44.802;10.332;2024-02-26T10:26:55;11.00;;;5.68;;
78120;SDS011;67585;44.802;10.332;2024-02-26T10:29:23;12.85;;;4.93;;
78120;SDS011;67585;44.802;10.332;2024-02-26T10:31:50;10.23;;;4.45;;
78120;SDS011;67585;44.802;10.332;2024-02-26T10:34:16;10.95;;;4.68;;
78120;SDS011;67585;44.802;10.332;2024-02-26T10:36:42;9.77;;;4.80;;
78120;SDS011;67585;44.802;10.332;2024-02-26T10:39:08;8.73;;;4.25;;
78120;SDS011;67585;44.802;10.332;2024-02-26T10:41:34;12.65;;;4.95;;
78120;SDS011;67585;44.802;10.332;2024-02-26T10:44:00;9.40;;;3.80;;
78120;SDS011;67585;44.802;10.332;2024-02-26T10:46:26;8.18;;;4.15;;
78120;SDS011;67585;44.802;10.332;2024-02-26T10:48:52;8.07;;;3.53;;
78120;SDS011;67585;44.802;10.332;2024-02-26T10:51:29;8.95;;;5.10;;
78120;SDS011;67585;44.802;10.332;2024-02-26T10:53:56;8.00;;;3.42;;
78120;SDS011;67585;44.802;10.332;2024-02-26T10:56:27;12.15;;;4.63;;
78120;SDS011;67585;44.802;10.332;2024-02-26T10:58:57;9.38;;;4.00;;
78120;SDS011;67585;44.802;10.332;2024-02-26T11:01:24;10.25;;;3.85;;
78120;SDS011;67585;44.802;10.332;2024-02-26T11:03:50;9.77;;;3.25;;
78120;SDS011;67585;44.802;10.332;2024-02-26T11:06:18;10.63;;;4.35;;
78120;SDS011;67585;44.802;10.332;2024-02-26T11:08:47;9.90;;;4.20;;
78120;SDS011;67585;44.802;10.332;2024-02-26T11:11:14;12.10;;;5.15;;
78120;SDS011;67585;44.802;10.332;2024-02-26T11:16:11;10.15;;;2.80;;
78120;SDS011;67585;44.802;10.332;2024-02-26T11:18:37;8.48;;;3.88;;
78120;SDS011;67585;44.802;10.332;2024-02-26T11:21:04;7.25;;;3.75;;
78120;SDS011;67585;44.802;10.332;2024-02-26T11:23:33;8.00;;;4.10;;
78120;SDS011;67585;44.802;10.332;2024-02-26T11:26:02;9.35;;;4.00;;
78120;SDS011;67585;44.802;10.332;2024-02-26T11:28:31;11.02;;;5.03;;
78120;SDS011;67585;44.802;10.332;2024-02-26T11:30:59;9.13;;;3.90;;
78120;SDS011;67585;44.802;10.332;2024-02-26T11:33:26;7.32;;;3.22;;
78120;SDS011;67585;44.802;10.332;2024-02-26T11:35:53;13.20;;;4.05;;
78120;SDS011;67585;44.802;10.332;2024-02-26T11:38:20;12.65;;;3.17;;
78120;SDS011;67585;44.802;10.332;2024-02-26T11:40:46;8.25;;;2.83;;
78120;SDS011;67585;44.802;10.332;2024-02-26T11:43:13;9.38;;;2.75;;
78120;SDS011;67585;44.802;10.332;2024-02-26T11:48:11;7.18;;;2.75;;
78120;SDS011;67585;44.802;10.332;2024-02-26T11:50:40;11.38;;;3.15;;
78120;SDS011;67585;44.802;10.332;2024-02-26T11:55:44;9.30;;;3.63;;
78120;SDS011;67585;44.802;10.332;2024-02-26T11:58:10;7.45;;;3.05;;
78120;SDS011;67585;44.802;10.332;2024-02-26T12:00:35;9.27;;;4.03;;
78120;SDS011;67585;44.802;10.332;2024-02-26T12:03:01;7.70;;;2.63;;
78120;SDS011;67585;44.802;10.332;2024-02-26T12:05:30;6.15;;;3.92;;
78120;SDS011;67585;44.802;10.332;2024-02-26T12:08:01;9.48;;;2.85;;
78120;SDS011;67585;44.802;10.332;2024-02-26T12:13:08;8.52;;;3.28;;
78120;SDS011;67585;44.802;10.332;2024-02-26T12:15:38;7.25;;;3.45;;
78120;SDS011;67585;44.802;10.332;2024-02-26T12:18:08;6.72;;;3.13;;
78120;SDS011;67585;44.802;10.332;2024-02-26T12:20:35;8.23;;;3.03;;
78120;SDS011;67585;44.802;10.332;2024-02-26T12:23:04;10.52;;;3.90;;
78120;SDS011;67585;44.802;10.332;2024-02-26T12:25:30;8.38;;;2.90;;
78120;SDS011;67585;44.802;10.332;2024-02-26T12:27:56;7.40;;;2.65;;
78120;SDS011;67585;44.802;10.332;2024-02-26T12:30:22;10.77;;;2.28;;
78120;SDS011;67585;44.802;10.332;2024-02-26T12:32:49;5.40;;;2.15;;
78120;SDS011;67585;44.802;10.332;2024-02-26T12:35:15;7.00;;;2.33;;
78120;SDS011;67585;44.802;10.332;2024-02-26T12:37:42;7.50;;;2.38;;
78120;SDS011;67585;44.802;10.332;2024-02-26T12:40:08;4.32;;;1.40;;
78120;SDS011;67585;44.802;10.332;2024-02-26T12:42:35;4.65;;;1.45;;
78120;SDS011;67585;44.802;10.332;2024-02-26T12:45:07;3.50;;;0.73;;
78120;SDS011;67585;44.802;10.332;2024-02-26T12:47:44;7.00;;;0.55;;
78120;SDS011;67585;44.802;10.332;2024-02-26T12:50:16;3.22;;;0.50;;
78120;SDS011;67585;44.802;10.332;2024-02-26T12:52:46;1.15;;;0.10;;
78120;SDS011;67585;44.802;10.332;2024-02-26T12:55:16;1.25;;;0.20;;
78120;SDS011;67585;44.802;10.332;2024-02-26T12:57:44;2.50;;;0.10;;
78120;SDS011;67585;44.802;10.332;2024-02-26T13:00:12;0.88;;;0.15;;
78120;SDS011;67585;44.802;10.332;2024-02-26T13:02:40;5.13;;;0.30;;
78120;SDS011;67585;44.802;10.332;2024-02-26T13:05:09;1.05;;;0.10;;
78120;SDS011;67585;44.802;10.332;2024-02-26T13:10:08;2.22;;;0.10;;
78120;SDS011;67585;44.802;10.332;2024-02-26T13:12:37;0.47;;;0.20;;
78120;SDS011;67585;44.802;10.332;2024-02-26T13:15:07;5.85;;;0.60;;
78120;SDS011;67585;44.802;10.332;2024-02-26T13:17:32;4.18;;;0.03;;
78120;SDS011;67585;44.802;10.332;2024-02-26T13:19:58;1.80;;;0.35;;
78120;SDS011;67585;44.802;10.332;2024-02-26T13:22:23;5.18;;;0.57;;
78120;SDS011;67585;44.802;10.332;2024-02-26T13:24:58;3.40;;;0.22;;
78120;SDS011;67585;44.802;10.332;2024-02-26T13:27:25;1.40;;;0.52;;
78120;SDS011;67585;44.802;10.332;2024-02-26T13:32:33;1.90;;;0.43;;
78120;SDS011;67585;44.802;10.332;2024-02-26T13:35:07;3.60;;;0.77;;
78120;SDS011;67585;44.802;10.332;2024-02-26T13:37:34;2.28;;;0.57;;
78120;SDS011;67585;44.802;10.332;2024-02-26T13:40:00;2.40;;;0.82;;
78120;SDS011;67585;44.802;10.332;2024-02-26T13:42:29;3.53;;;0.73;;
78120;SDS011;67585;44.802;10.332;2024-02-26T13:44:58;1.70;;;0.22;;
78120;SDS011;67585;44.802;10.332;2024-02-26T13:47:23;4.50;;;0.90;;
78120;SDS011;67585;44.802;10.332;2024-02-26T13:49:49;5.07;;;1.20;;
78120;SDS011;67585;44.802;10.332;2024-02-26T13:52:14;6.80;;;1.63;;
78120;SDS011;67585;44.802;10.332;2024-02-26T13:54:40;4.65;;;1.00;;
78120;SDS011;67585;44.802;10.332;2024-02-26T13:57:06;5.75;;;1.80;;
78120;SDS011;67585;44.802;10.332;2024-02-26T13:59:31;9.05;;;2.17;;
78120;SDS011;67585;44.802;10.332;2024-02-26T14:01:57;4.22;;;1.55;;
78120;SDS011;67585;44.802;10.332;2024-02-26T14:04:25;3.35;;;1.35;;
78120;SDS011;67585;44.802;10.332;2024-02-26T14:06:51;5.07;;;1.23;;
78120;SDS011;67585;44.802;10.332;2024-02-26T14:09:16;4.00;;;1.25;;
78120;SDS011;67585;44.802;10.332;2024-02-26T14:14:12;2.20;;;0.95;;
78120;SDS011;67585;44.802;10.332;2024-02-26T14:16:37;4.25;;;0.98;;
78120;SDS011;67585;44.802;10.332;2024-02-26T14:19:03;2.20;;;0.40;;
78120;SDS011;67585;44.802;10.332;2024-02-26T14:21:28;2.70;;;0.47;;
78120;SDS011;67585;44.802;10.332;2024-02-26T14:23:57;2.33;;;1.25;;
78120;SDS011;67585;44.802;10.332;2024-02-26T14:26:22;2.50;;;0.30;;
78120;SDS011;67585;44.802;10.332;2024-02-26T14:28:48;4.20;;;0.80;;
78120;SDS011;67585;44.802;10.332;2024-02-26T14:31:16;6.60;;;1.13;;
78120;SDS011;67585;44.802;10.332;2024-02-26T14:33:42;3.22;;;0.77;;
78120;SDS011;67585;44.802;10.332;2024-02-26T14:36:08;2.78;;;0.80;;
78120;SDS011;67585;44.802;10.332;2024-02-26T14:38:33;4.25;;;1.20;;
78120;SDS011;67585;44.802;10.332;2024-02-26T14:40:59;2.47;;;0.70;;
78120;SDS011;67585;44.802;10.332;2024-02-26T14:43:24;3.13;;;0.73;;
78120;SDS011;67585;44.802;10.332;2024-02-26T14:45:49;6.63;;;0.88;;